Terminal Aerodrome Forecast
Issued by NWS Pocatello, ID

Home | Current Version | Previous Version | Text Only | Print | Product List | Glossary On
Versions: 1 2 3 4 5 6 7 8 9 10 11 12
951
FTUS45 KPIH 262333
TAFBYI
TAF
KBYI 262333Z 2700/2724 VRB06KT P6SM -SHRA VCTS SCT060CB BKN100
     FM270600 17006KT P6SM VCSH SCT080 BKN120
     FM271800 26008KT P6SM VCTS BKN090CB=

USA.gov is the U.S. government's official web portal to all federal, state and local government web resources and services.